CheckWX is a tool to help pilots better visualize weather data.  It is not intended as a substitute for an official pre-flight weather briefing.

15:02:38 UTC

KSLC TAF
Salt Lake City International Airport
Salt Lake City, Utah, USA
KSLC 231448Z 2315/2418 16004KT P6SM VCSH BKN050 FM231600 16007KT P6SM SCT050 BKN150 FM232000 30007KT P6SM SCT060 BKN120 FM240200 16007KT P6SM VCSH SCT020 BKN040

Mar-23@
15:00 UTC

Mar-23 @ 15:00 UTC

Mar-23@
16:00 UTC

Mar-23 @ 16:00 UTC

KSLC 231448Z 2315/2418 16004KT P6SM VCSH BKN050
Wind
  • 160° at 4 KTS
Cloud Levels
  • Broken at 5,000' AGL

Mar-23@
16:00 UTC

Mar-23 @ 16:00 UTC

Mar-23@
20:00 UTC

Mar-23 @ 20:00 UTC

FM231600 16007KT P6SM SCT050 BKN150

From

From Standard forecast or significant change

Wind
  • 160° at 7 KTS
Cloud Levels
  • Scattered at 5,000' AGL
  • Broken at 15,000' AGL

Mar-23@
20:00 UTC

Mar-23 @ 20:00 UTC

Mar-24@
02:00 UTC

Mar-24 @ 02:00 UTC

FM232000 30007KT P6SM SCT060 BKN120

From

From Standard forecast or significant change

Wind
  • 300° at 7 KTS
Cloud Levels
  • Scattered at 6,000' AGL
  • Broken at 12,000' AGL

Mar-24@
02:00 UTC

Mar-24 @ 02:00 UTC

Mar-24@
18:00 UTC

Mar-24 @ 18:00 UTC

FM240200 16007KT P6SM VCSH SCT020 BKN040

From

From Standard forecast or significant change

Wind
  • 160° at 7 KTS
Cloud Levels
  • Scattered at 2,000' AGL
  • Broken at 4,000' AGL